Item Display Status Humidity-temperature Sensor

Elevation Above Sea Level: 3 m

 

Deployed Sensor

  • Serial Number: 61303688
  • NDBC Property Number: 38754
  • Start Date: 6/20/2019 (21:10:00 Z)
  • End Date: Currently Active
Relative Humidity [%]     6 entries per hour
Showing data from 8/18/2019 (23:50:00 Z) to 8/17/2019 (00:00:01 Z)
Previous Next [ Day | 3-Days | 7-Days ]
First Last
Prev [ Day | 3-Days | 7-Days ] Next
First Last

Start Time:     :
End Time:     :     
Time (in GMT) :00 :50 :40 :30 :20 :10
Previous Next [ Day | 3-Days | 7-Days ]
First Last
Prev [ Day | 3-Days | 7-Days ] Next
First Last


123 => good data
MM => data is determined as missing
-- => data not received/configured
Back to Top Back to Top
8/19/2019 00:00 to 23:10 -- 96.17 94.58 94.23 93.68 94.15
8/18/2019 23:00 to 22:10 93.78 93.53 93.92 93.22 93.16 93.70
8/18/2019 22:00 to 21:10 92.37 92.91 92.97 93.57 95.18 95.58
8/18/2019 21:00 to 20:10 95.08 92.66 91.51 92.87 91.28 92.21
8/18/2019 20:00 to 19:10 91.53 91.77 90.70 89.94 88.47 89.52
8/18/2019 19:00 to 18:10 88.82 87.62 84.80 85.44 86.45 85.68
8/18/2019 18:00 to 17:10 85.85 85.15 85.27 84.63 84.47 84.61
8/18/2019 17:00 to 16:10 84.47 85.00 85.15 84.53 84.42 84.69
8/18/2019 16:00 to 15:10 84.38 84.40 84.09 83.82 83.25 82.15
8/18/2019 15:00 to 14:10 82.81 82.42 83.04 82.77 82.81 81.59
8/18/2019 14:00 to 13:10 81.66 81.20 82.05 81.33 81.93 81.66
8/18/2019 13:00 to 12:10 81.78 82.34 82.46 82.94 82.54 82.79
8/18/2019 12:00 to 11:10 83.18 83.33 83.19 82.85 82.79 83.29
8/18/2019 11:00 to 10:10 83.60 83.14 82.34 82.57 81.53 81.62
8/18/2019 10:00 to 9:10 82.34 81.53 81.18 80.48 81.22 81.31
8/18/2019 09:00 to 8:10 82.19 79.96 79.78 79.06 80.21 79.57
8/18/2019 08:00 to 7:10 79.45 79.70 80.11 81.16 78.77 80.75
8/18/2019 07:00 to 6:10 80.85 80.93 80.93 80.44 81.18 79.41
8/18/2019 06:00 to 5:10 81.37 80.42 79.14 80.32 81.27 80.40
8/18/2019 05:00 to 4:10 78.35 78.83 78.62 78.79 80.13 80.44
8/18/2019 04:00 to 3:10 80.56 79.34 79.94 78.17 78.50 79.47
8/18/2019 03:00 to 2:10 80.03 80.87 81.27 79.14 79.72 79.59
8/18/2019 02:00 to 1:10 80.13 80.91 81.57 80.83 81.26 79.34
8/18/2019 01:00 to 0:10 78.99 79.59 77.98 79.80 79.28 79.80
8/18/2019 00:00 to 23:10 80.48 82.05 83.04 82.42 81.86 82.07
8/17/2019 23:00 to 22:10 83.16 83.56 83.39 84.36 83.99 85.60
8/17/2019 22:00 to 21:10 84.20 85.93 85.72 85.39 84.11 83.72
8/17/2019 21:00 to 20:10 84.69 85.27 84.53 83.72 84.98 85.95
8/17/2019 20:00 to 19:10 85.09 84.78 85.70 85.66 86.65 85.95
8/17/2019 19:00 to 18:10 85.33 85.02 85.11 84.63 85.15 85.87
8/17/2019 18:00 to 17:10 85.41 86.16 86.39 85.50 83.70 83.74
8/17/2019 17:00 to 16:10 83.41 83.49 82.59 82.55 82.71 84.84
8/17/2019 16:00 to 15:10 85.35 85.11 83.19 82.28 82.07 81.64
8/17/2019 15:00 to 14:10 83.80 84.65 86.94 87.67 86.76 87.89
8/17/2019 14:00 to 13:10 88.57 88.72 87.60 87.36 87.63 88.84
8/17/2019 13:00 to 12:10 88.14 88.55 88.59 90.08 90.18 88.99
8/17/2019 12:00 to 11:10 89.26 89.57 88.80 89.90 88.41 90.19
8/17/2019 11:00 to 10:10 90.70 90.62 91.36 89.21 90.18 89.94
8/17/2019 10:00 to 9:10 89.36 89.17 89.94 89.85 88.47 90.54
8/17/2019 09:00 to 8:10 90.39 90.97 90.06 91.42 92.40 90.68
8/17/2019 08:00 to 7:10 93.80 92.52 92.73 92.58 94.07 93.96
8/17/2019 07:00 to 6:10 94.69 95.66 96.21 96.90 97.52 98.05
8/17/2019 06:00 to 5:10 97.35 98.30 98.80 97.31 98.76 99.35
8/17/2019 05:00 to 4:10 99.54 99.73 99.73 99.73 99.48 99.40
8/17/2019 04:00 to 3:10 99.19 99.66 99.58 99.68 99.52 98.80
8/17/2019 03:00 to 2:10 97.66 97.02 97.97 98.63 98.13 98.53
8/17/2019 02:00 to 1:10 98.44 98.94 96.96 98.16 96.69 98.92
8/17/2019 01:00 to 0:10 99.54 99.39 99.00 99.09 98.76 97.93

 

 

 

Air Temperature [°C]     6 entries per hour
Showing data from 11/12/2019 (07:00:00 Z) to 11/11/2019 (00:00:01 Z)
Previous Next [ Day | 3-Days | 7-Days ]
First Last
Prev [ Day | 3-Days | 7-Days ] Next
First Last

Start Time:     :
End Time:     :     
Time (in GMT) :00 :50 :40 :30 :20 :10
Previous Next [ Day | 3-Days | 7-Days ]
First Last
Prev [ Day | 3-Days | 7-Days ] Next
First Last


123 => good data
MM => data is determined as missing
-- => data not received/configured
Back to Top Back to Top
11/12/2019 07:00 to 6:10 21.76 21.88 21.79 21.90 22.03 22.20
11/12/2019 06:00 to 5:10 22.30 22.30 22.27 22.26 22.14 22.32
11/12/2019 05:00 to 4:10 22.43 22.35 22.56 22.37 22.36 22.35
11/12/2019 04:00 to 3:10 22.32 22.37 22.27 22.40 22.31 22.49
11/12/2019 03:00 to 2:10 22.54 22.54 22.62 22.47 22.39 22.40
11/12/2019 02:00 to 1:10 22.46 22.41 22.43 22.42 22.47 22.57
11/12/2019 01:00 to 0:10 22.54 22.39 22.41 22.50 22.32 22.46
11/12/2019 00:00 to 23:10 22.30 22.33 22.47 22.30 22.36 22.50
11/11/2019 23:00 to 22:10 22.40 22.38 22.52 22.37 22.38 22.35
11/11/2019 22:00 to 21:10 22.43 22.58 22.61 22.65 22.40 22.39
11/11/2019 21:00 to 20:10 22.39 22.35 22.27 22.26 22.47 22.34
11/11/2019 20:00 to 19:10 22.33 22.44 22.48 22.45 22.60 22.55
11/11/2019 19:00 to 18:10 22.60 22.65 22.76 22.65 22.68 22.56
11/11/2019 18:00 to 17:10 22.53 22.52 22.36 22.42 22.44 22.31
11/11/2019 17:00 to 16:10 22.30 22.19 22.21 22.61 22.38 22.43
11/11/2019 16:00 to 15:10 22.29 22.23 22.29 22.28 22.42 22.38
11/11/2019 15:00 to 14:10 22.19 22.14 22.18 22.18 22.17 22.09
11/11/2019 14:00 to 13:10 22.08 22.13 22.10 22.15 22.09 22.07
11/11/2019 13:00 to 12:10 21.96 21.97 22.16 22.17 22.12 22.02
11/11/2019 12:00 to 11:10 22.10 21.99 21.82 21.78 21.70 21.72
11/11/2019 11:00 to 10:10 21.75 21.74 21.68 21.62 21.60 21.52
11/11/2019 10:00 to 9:10 21.82 21.95 21.67 21.66 21.59 21.91
11/11/2019 09:00 to 8:10 21.82 21.73 21.68 21.34 21.41 21.25
11/11/2019 08:00 to 7:10 21.10 21.04 21.09 21.16 20.89 21.06
11/11/2019 07:00 to 6:10 21.57 22.09 21.92 21.99 22.04 21.79
11/11/2019 06:00 to 5:10 21.87 21.87 21.61 22.01 22.07 22.11
11/11/2019 05:00 to 4:10 22.36 22.46 22.33 22.29 22.55 22.43
11/11/2019 04:00 to 3:10 22.37 22.34 22.45 22.37 22.37 22.46
11/11/2019 03:00 to 2:10 22.37 22.25 22.25 22.33 22.25 22.21
11/11/2019 02:00 to 1:10 22.03 22.03 22.10 22.05 21.91 22.03
11/11/2019 01:00 to 0:10 21.87 21.64 21.58 21.64 21.51 21.37